Garnett Industrial Airport (K68)
Garnett, KS
Field Elevation: 989
Lat: 38°16.64N  Long: 95°12.91W
CTAF/Unicom Freq: 122.8000
   
     For Weather-by-Phone, call 785-448-3254
Weather Advisories
1/29/2015 16:14 Z
Altimeter 30.36" Hg
Wind 340° @ 11 KT
Gusts 21 KT
Visibility 10 SM
Temperature 4° C (39° F)
Dewpoint -2° C (28° F)
Relative Humidity 64%
Density Altitude --
Condensation Altitude 4,000 feet
Wind Chill 0° C (32° F)
  Wind and Runways
Indicated Runway = 1
History
 
 
More Info
All DigiWx sites map
NOAA Forecast
 
Airport IQ 5010
(FLV) Sherman Airfield
(GRE) Greenville
 
about DigiWx
 
FAA Disclaimer: The data displayed is for advisory purposes only and is not to be used for flight planning or operations. For official data, please call 785-448-3254 to hear the current automated AWOS voice message.
  METAR K68 291614Z AUTO 34011G21KT 10SM 04/M02 A3036